sensor_id;sensor_type;location;lat;lon;timestamp;P1;durP1;ratioP1;P2;durP2;ratioP2
56161;SDS011;42045;52.986;6.014;2022-11-13T00:01:07;16.83;;;15.10;;
56161;SDS011;42045;52.986;6.014;2022-11-13T00:06:11;17.17;;;15.32;;
56161;SDS011;42045;52.986;6.014;2022-11-13T00:08:38;16.90;;;14.60;;
56161;SDS011;42045;52.986;6.014;2022-11-13T00:13:32;18.48;;;16.48;;
56161;SDS011;42045;52.986;6.014;2022-11-13T00:15:58;14.77;;;13.10;;
56161;SDS011;42045;52.986;6.014;2022-11-13T00:18:25;16.67;;;14.90;;
56161;SDS011;42045;52.986;6.014;2022-11-13T00:20:52;29.58;;;16.27;;
56161;SDS011;42045;52.986;6.014;2022-11-13T00:23:17;178.77;;;20.42;;
56161;SDS011;42045;52.986;6.014;2022-11-13T00:25:43;68.43;;;15.07;;
56161;SDS011;42045;52.986;6.014;2022-11-13T00:28:09;27.13;;;14.20;;
56161;SDS011;42045;52.986;6.014;2022-11-13T00:30:35;18.98;;;14.13;;
56161;SDS011;42045;52.986;6.014;2022-11-13T00:33:00;16.20;;;14.48;;
56161;SDS011;42045;52.986;6.014;2022-11-13T00:35:26;22.90;;;19.77;;
56161;SDS011;42045;52.986;6.014;2022-11-13T00:37:51;22.77;;;20.40;;
56161;SDS011;42045;52.986;6.014;2022-11-13T00:40:18;28.67;;;22.48;;
56161;SDS011;42045;52.986;6.014;2022-11-13T00:42:44;28.75;;;25.55;;
56161;SDS011;42045;52.986;6.014;2022-11-13T00:45:09;31.40;;;25.30;;
56161;SDS011;42045;52.986;6.014;2022-11-13T00:47:35;28.55;;;23.45;;
56161;SDS011;42045;52.986;6.014;2022-11-13T00:50:01;30.13;;;25.35;;
56161;SDS011;42045;52.986;6.014;2022-11-13T00:52:27;30.40;;;25.15;;
56161;SDS011;42045;52.986;6.014;2022-11-13T00:54:52;28.45;;;24.95;;
56161;SDS011;42045;52.986;6.014;2022-11-13T00:57:18;29.05;;;24.58;;
56161;SDS011;42045;52.986;6.014;2022-11-13T00:59:43;37.75;;;25.40;;
56161;SDS011;42045;52.986;6.014;2022-11-13T01:02:09;28.15;;;24.95;;
56161;SDS011;42045;52.986;6.014;2022-11-13T01:04:36;28.92;;;23.85;;
56161;SDS011;42045;52.986;6.014;2022-11-13T01:07:02;29.13;;;24.05;;
56161;SDS011;42045;52.986;6.014;2022-11-13T01:09:28;30.25;;;24.17;;
56161;SDS011;42045;52.986;6.014;2022-11-13T01:11:53;27.98;;;23.50;;
56161;SDS011;42045;52.986;6.014;2022-11-13T01:14:19;28.05;;;22.77;;
56161;SDS011;42045;52.986;6.014;2022-11-13T01:16:45;27.42;;;22.90;;
56161;SDS011;42045;52.986;6.014;2022-11-13T01:19:10;27.15;;;22.55;;
56161;SDS011;42045;52.986;6.014;2022-11-13T01:21:36;26.95;;;22.13;;
56161;SDS011;42045;52.986;6.014;2022-11-13T01:24:02;27.13;;;22.83;;
56161;SDS011;42045;52.986;6.014;2022-11-13T01:26:28;24.77;;;22.17;;
56161;SDS011;42045;52.986;6.014;2022-11-13T01:28:55;25.90;;;20.90;;
56161;SDS011;42045;52.986;6.014;2022-11-13T01:31:24;25.77;;;21.05;;
56161;SDS011;42045;52.986;6.014;2022-11-13T01:33:53;24.05;;;19.95;;
56161;SDS011;42045;52.986;6.014;2022-11-13T01:36:20;23.08;;;20.33;;
56161;SDS011;42045;52.986;6.014;2022-11-13T01:38:47;24.42;;;20.80;;
56161;SDS011;42045;52.986;6.014;2022-11-13T01:41:18;22.73;;;20.30;;
56161;SDS011;42045;52.986;6.014;2022-11-13T01:43:46;24.95;;;20.27;;
56161;SDS011;42045;52.986;6.014;2022-11-13T01:46:15;24.52;;;21.08;;
56161;SDS011;42045;52.986;6.014;2022-11-13T01:48:44;22.40;;;19.83;;
56161;SDS011;42045;52.986;6.014;2022-11-13T01:51:24;25.00;;;20.63;;
56161;SDS011;42045;52.986;6.014;2022-11-13T01:54:04;23.38;;;18.58;;
56161;SDS011;42045;52.986;6.014;2022-11-13T01:56:33;24.52;;;19.10;;
56161;SDS011;42045;52.986;6.014;2022-11-13T01:59:04;23.52;;;19.27;;
56161;SDS011;42045;52.986;6.014;2022-11-13T02:01:37;25.40;;;20.63;;
56161;SDS011;42045;52.986;6.014;2022-11-13T02:04:03;23.05;;;20.63;;
56161;SDS011;42045;52.986;6.014;2022-11-13T02:06:51;26.45;;;21.45;;
56161;SDS011;42045;52.986;6.014;2022-11-13T02:09:15;23.85;;;20.80;;
56161;SDS011;42045;52.986;6.014;2022-11-13T02:11:46;26.42;;;21.65;;
56161;SDS011;42045;52.986;6.014;2022-11-13T02:14:12;26.13;;;20.45;;
56161;SDS011;42045;52.986;6.014;2022-11-13T02:16:39;23.38;;;19.75;;
56161;SDS011;42045;52.986;6.014;2022-11-13T02:19:09;24.55;;;20.58;;
56161;SDS011;42045;52.986;6.014;2022-11-13T02:21:43;23.38;;;20.60;;
56161;SDS011;42045;52.986;6.014;2022-11-13T02:24:22;25.73;;;21.70;;
56161;SDS011;42045;52.986;6.014;2022-11-13T02:26:52;26.35;;;21.02;;
56161;SDS011;42045;52.986;6.014;2022-11-13T02:29:20;22.73;;;20.33;;
56161;SDS011;42045;52.986;6.014;2022-11-13T02:31:46;22.17;;;19.88;;
56161;SDS011;42045;52.986;6.014;2022-11-13T02:34:11;21.65;;;19.35;;
56161;SDS011;42045;52.986;6.014;2022-11-13T02:36:37;23.15;;;20.02;;
56161;SDS011;42045;52.986;6.014;2022-11-13T02:39:05;23.45;;;19.52;;
56161;SDS011;42045;52.986;6.014;2022-11-13T02:41:33;23.42;;;19.25;;
56161;SDS011;42045;52.986;6.014;2022-11-13T02:43:58;21.63;;;18.92;;
56161;SDS011;42045;52.986;6.014;2022-11-13T02:46:24;24.63;;;19.17;;
56161;SDS011;42045;52.986;6.014;2022-11-13T02:48:49;25.38;;;20.42;;
56161;SDS011;42045;52.986;6.014;2022-11-13T02:51:15;22.75;;;20.40;;
56161;SDS011;42045;52.986;6.014;2022-11-13T02:53:41;23.58;;;20.50;;
56161;SDS011;42045;52.986;6.014;2022-11-13T02:56:06;25.25;;;20.95;;
56161;SDS011;42045;52.986;6.014;2022-11-13T02:58:32;23.25;;;19.77;;
56161;SDS011;42045;52.986;6.014;2022-11-13T03:00:59;22.65;;;19.38;;
56161;SDS011;42045;52.986;6.014;2022-11-13T03:03:26;23.17;;;19.48;;
56161;SDS011;42045;52.986;6.014;2022-11-13T03:05:52;26.02;;;21.30;;
56161;SDS011;42045;52.986;6.014;2022-11-13T03:08:17;21.60;;;19.38;;
56161;SDS011;42045;52.986;6.014;2022-11-13T03:10:44;20.42;;;18.20;;
56161;SDS011;42045;52.986;6.014;2022-11-13T03:13:10;21.08;;;18.58;;
56161;SDS011;42045;52.986;6.014;2022-11-13T03:15:36;23.73;;;20.02;;
56161;SDS011;42045;52.986;6.014;2022-11-13T03:18:02;23.70;;;20.05;;
56161;SDS011;42045;52.986;6.014;2022-11-13T03:20:30;22.80;;;20.40;;
56161;SDS011;42045;52.986;6.014;2022-11-13T03:22:56;25.40;;;21.08;;
56161;SDS011;42045;52.986;6.014;2022-11-13T03:25:22;24.27;;;20.65;;
56161;SDS011;42045;52.986;6.014;2022-11-13T03:27:47;24.15;;;20.35;;
56161;SDS011;42045;52.986;6.014;2022-11-13T03:30:13;24.85;;;20.88;;
56161;SDS011;42045;52.986;6.014;2022-11-13T03:32:38;23.13;;;20.67;;
56161;SDS011;42045;52.986;6.014;2022-11-13T03:35:04;22.38;;;19.98;;
56161;SDS011;42045;52.986;6.014;2022-11-13T03:37:30;22.88;;;20.02;;
56161;SDS011;42045;52.986;6.014;2022-11-13T03:39:56;22.88;;;20.55;;
56161;SDS011;42045;52.986;6.014;2022-11-13T03:42:21;23.83;;;19.30;;
56161;SDS011;42045;52.986;6.014;2022-11-13T03:44:47;23.15;;;19.30;;
56161;SDS011;42045;52.986;6.014;2022-11-13T03:47:13;24.77;;;20.33;;
56161;SDS011;42045;52.986;6.014;2022-11-13T03:49:39;25.13;;;20.30;;
56161;SDS011;42045;52.986;6.014;2022-11-13T03:52:05;22.83;;;20.17;;
56161;SDS011;42045;52.986;6.014;2022-11-13T03:54:30;21.77;;;19.48;;
56161;SDS011;42045;52.986;6.014;2022-11-13T03:56:56;24.48;;;19.35;;
56161;SDS011;42045;52.986;6.014;2022-11-13T03:59:22;20.42;;;18.33;;
56161;SDS011;42045;52.986;6.014;2022-11-13T04:01:47;21.88;;;18.67;;
56161;SDS011;42045;52.986;6.014;2022-11-13T04:04:13;21.73;;;19.40;;
56161;SDS011;42045;52.986;6.014;2022-11-13T04:06:39;21.45;;;19.15;;
56161;SDS011;42045;52.986;6.014;2022-11-13T04:09:05;23.83;;;19.80;;
56161;SDS011;42045;52.986;6.014;2022-11-13T04:11:31;24.92;;;20.73;;
56161;SDS011;42045;52.986;6.014;2022-11-13T04:13:57;22.98;;;20.27;;
56161;SDS011;42045;52.986;6.014;2022-11-13T04:16:23;23.05;;;20.00;;
56161;SDS011;42045;52.986;6.014;2022-11-13T04:18:49;23.38;;;20.95;;
56161;SDS011;42045;52.986;6.014;2022-11-13T04:21:14;23.10;;;19.75;;
56161;SDS011;42045;52.986;6.014;2022-11-13T04:23:40;21.60;;;19.30;;
56161;SDS011;42045;52.986;6.014;2022-11-13T04:26:06;22.58;;;19.17;;
56161;SDS011;42045;52.986;6.014;2022-11-13T04:28:31;24.15;;;19.45;;
56161;SDS011;42045;52.986;6.014;2022-11-13T04:30:57;23.33;;;20.30;;
56161;SDS011;42045;52.986;6.014;2022-11-13T04:33:23;21.65;;;19.40;;
56161;SDS011;42045;52.986;6.014;2022-11-13T04:35:48;22.35;;;19.90;;
56161;SDS011;42045;52.986;6.014;2022-11-13T04:38:14;25.33;;;19.25;;
56161;SDS011;42045;52.986;6.014;2022-11-13T04:40:40;24.70;;;21.35;;
56161;SDS011;42045;52.986;6.014;2022-11-13T04:43:06;23.55;;;21.08;;
56161;SDS011;42045;52.986;6.014;2022-11-13T04:45:32;23.75;;;20.88;;
56161;SDS011;42045;52.986;6.014;2022-11-13T04:47:58;25.50;;;22.10;;
56161;SDS011;42045;52.986;6.014;2022-11-13T04:50:24;24.38;;;21.05;;
56161;SDS011;42045;52.986;6.014;2022-11-13T04:52:50;23.55;;;20.83;;
56161;SDS011;42045;52.986;6.014;2022-11-13T04:55:15;24.35;;;21.75;;
56161;SDS011;42045;52.986;6.014;2022-11-13T04:57:41;25.90;;;21.23;;
56161;SDS011;42045;52.986;6.014;2022-11-13T05:00:07;27.85;;;21.70;;
56161;SDS011;42045;52.986;6.014;2022-11-13T05:02:33;25.25;;;21.80;;
56161;SDS011;42045;52.986;6.014;2022-11-13T05:04:59;24.65;;;22.05;;
56161;SDS011;42045;52.986;6.014;2022-11-13T05:07:25;24.08;;;21.67;;
56161;SDS011;42045;52.986;6.014;2022-11-13T05:09:51;25.40;;;21.85;;
56161;SDS011;42045;52.986;6.014;2022-11-13T05:12:17;24.13;;;21.63;;
56161;SDS011;42045;52.986;6.014;2022-11-13T05:14:43;25.65;;;22.80;;
56161;SDS011;42045;52.986;6.014;2022-11-13T05:17:09;25.00;;;22.30;;
56161;SDS011;42045;52.986;6.014;2022-11-13T05:19:36;24.08;;;21.40;;
56161;SDS011;42045;52.986;6.014;2022-11-13T05:22:02;24.15;;;21.35;;
56161;SDS011;42045;52.986;6.014;2022-11-13T05:24:29;23.63;;;21.10;;
56161;SDS011;42045;52.986;6.014;2022-11-13T05:26:54;27.13;;;23.77;;
56161;SDS011;42045;52.986;6.014;2022-11-13T05:29:20;26.38;;;23.33;;
56161;SDS011;42045;52.986;6.014;2022-11-13T05:31:46;27.45;;;23.20;;
56161;SDS011;42045;52.986;6.014;2022-11-13T05:34:12;28.30;;;23.45;;
56161;SDS011;42045;52.986;6.014;2022-11-13T05:36:38;25.83;;;22.92;;
56161;SDS011;42045;52.986;6.014;2022-11-13T05:39:04;24.70;;;22.15;;
56161;SDS011;42045;52.986;6.014;2022-11-13T05:41:30;26.30;;;22.90;;
56161;SDS011;42045;52.986;6.014;2022-11-13T05:43:56;27.50;;;23.45;;
56161;SDS011;42045;52.986;6.014;2022-11-13T05:46:23;26.10;;;23.27;;
56161;SDS011;42045;52.986;6.014;2022-11-13T05:48:51;26.25;;;23.45;;
56161;SDS011;42045;52.986;6.014;2022-11-13T05:51:19;30.33;;;24.73;;
56161;SDS011;42045;52.986;6.014;2022-11-13T05:53:47;24.45;;;21.63;;
56161;SDS011;42045;52.986;6.014;2022-11-13T05:56:14;24.67;;;21.95;;
56161;SDS011;42045;52.986;6.014;2022-11-13T05:58:47;26.88;;;22.67;;
56161;SDS011;42045;52.986;6.014;2022-11-13T06:01:16;24.83;;;22.17;;
56161;SDS011;42045;52.986;6.014;2022-11-13T06:03:42;25.88;;;22.52;;
56161;SDS011;42045;52.986;6.014;2022-11-13T06:06:10;27.25;;;22.13;;
56161;SDS011;42045;52.986;6.014;2022-11-13T06:08:37;25.80;;;22.88;;
56161;SDS011;42045;52.986;6.014;2022-11-13T06:11:05;25.25;;;22.67;;
56161;SDS011;42045;52.986;6.014;2022-11-13T06:13:34;27.55;;;24.60;;
56161;SDS011;42045;52.986;6.014;2022-11-13T06:16:01;29.27;;;23.38;;
56161;SDS011;42045;52.986;6.014;2022-11-13T06:18:39;26.67;;;23.50;;
56161;SDS011;42045;52.986;6.014;2022-11-13T06:21:13;27.17;;;23.75;;
56161;SDS011;42045;52.986;6.014;2022-11-13T06:23:43;30.27;;;24.60;;
56161;SDS011;42045;52.986;6.014;2022-11-13T06:28:48;33.60;;;26.42;;
56161;SDS011;42045;52.986;6.014;2022-11-13T06:31:21;31.90;;;26.83;;
56161;SDS011;42045;52.986;6.014;2022-11-13T06:33:48;31.33;;;26.67;;
56161;SDS011;42045;52.986;6.014;2022-11-13T06:36:15;36.58;;;29.25;;
56161;SDS011;42045;52.986;6.014;2022-11-13T06:38:49;45.45;;;28.80;;
56161;SDS011;42045;52.986;6.014;2022-11-13T06:41:15;30.95;;;26.67;;
56161;SDS011;42045;52.986;6.014;2022-11-13T06:43:43;30.20;;;25.30;;
56161;SDS011;42045;52.986;6.014;2022-11-13T06:46:13;29.20;;;25.98;;
56161;SDS011;42045;52.986;6.014;2022-11-13T06:48:43;31.13;;;25.00;;
56161;SDS011;42045;52.986;6.014;2022-11-13T06:51:14;30.70;;;25.38;;
56161;SDS011;42045;52.986;6.014;2022-11-13T06:53:45;30.52;;;25.27;;
56161;SDS011;42045;52.986;6.014;2022-11-13T06:56:11;30.25;;;24.90;;
56161;SDS011;42045;52.986;6.014;2022-11-13T06:58:37;30.40;;;25.38;;
56161;SDS011;42045;52.986;6.014;2022-11-13T07:01:07;29.15;;;25.98;;
56161;SDS011;42045;52.986;6.014;2022-11-13T07:03:34;29.65;;;24.73;;
56161;SDS011;42045;52.986;6.014;2022-11-13T07:06:01;31.08;;;26.02;;
56161;SDS011;42045;52.986;6.014;2022-11-13T07:08:31;29.45;;;25.23;;
56161;SDS011;42045;52.986;6.014;2022-11-13T07:10:57;28.90;;;24.48;;
56161;SDS011;42045;52.986;6.014;2022-11-13T07:13:24;34.20;;;24.77;;
56161;SDS011;42045;52.986;6.014;2022-11-13T07:15:50;28.98;;;23.65;;
56161;SDS011;42045;52.986;6.014;2022-11-13T07:18:16;29.25;;;24.05;;
56161;SDS011;42045;52.986;6.014;2022-11-13T07:20:42;27.80;;;24.67;;
56161;SDS011;42045;52.986;6.014;2022-11-13T07:23:07;27.60;;;23.90;;
56161;SDS011;42045;52.986;6.014;2022-11-13T07:25:34;28.02;;;23.75;;
56161;SDS011;42045;52.986;6.014;2022-11-13T07:28:00;30.65;;;25.88;;
56161;SDS011;42045;52.986;6.014;2022-11-13T07:30:26;28.63;;;24.02;;
56161;SDS011;42045;52.986;6.014;2022-11-13T07:32:51;32.35;;;24.65;;
56161;SDS011;42045;52.986;6.014;2022-11-13T07:35:17;29.65;;;25.63;;
56161;SDS011;42045;52.986;6.014;2022-11-13T07:37:43;27.88;;;24.85;;
56161;SDS011;42045;52.986;6.014;2022-11-13T07:40:09;27.73;;;24.73;;
56161;SDS011;42045;52.986;6.014;2022-11-13T07:42:36;28.40;;;22.70;;
56161;SDS011;42045;52.986;6.014;2022-11-13T07:45:02;28.08;;;24.05;;
56161;SDS011;42045;52.986;6.014;2022-11-13T07:47:29;27.95;;;24.63;;
56161;SDS011;42045;52.986;6.014;2022-11-13T07:49:54;24.25;;;21.65;;
56161;SDS011;42045;52.986;6.014;2022-11-13T07:52:20;29.35;;;23.92;;
56161;SDS011;42045;52.986;6.014;2022-11-13T07:54:46;27.55;;;22.25;;
56161;SDS011;42045;52.986;6.014;2022-11-13T07:57:12;25.80;;;22.48;;
56161;SDS011;42045;52.986;6.014;2022-11-13T07:59:38;29.55;;;23.75;;
56161;SDS011;42045;52.986;6.014;2022-11-13T08:02:03;27.27;;;22.35;;
56161;SDS011;42045;52.986;6.014;2022-11-13T08:04:29;26.48;;;22.88;;
56161;SDS011;42045;52.986;6.014;2022-11-13T08:06:55;24.08;;;21.48;;
56161;SDS011;42045;52.986;6.014;2022-11-13T08:09:20;24.90;;;22.17;;
56161;SDS011;42045;52.986;6.014;2022-11-13T08:11:46;25.30;;;21.50;;
56161;SDS011;42045;52.986;6.014;2022-11-13T08:14:12;23.15;;;20.65;;
56161;SDS011;42045;52.986;6.014;2022-11-13T08:16:37;24.23;;;21.77;;
56161;SDS011;42045;52.986;6.014;2022-11-13T08:19:03;24.70;;;21.27;;
56161;SDS011;42045;52.986;6.014;2022-11-13T08:21:29;24.05;;;20.73;;
56161;SDS011;42045;52.986;6.014;2022-11-13T08:23:54;26.15;;;21.98;;
56161;SDS011;42045;52.986;6.014;2022-11-13T08:26:20;23.65;;;21.15;;
56161;SDS011;42045;52.986;6.014;2022-11-13T08:28:46;25.63;;;20.70;;
56161;SDS011;42045;52.986;6.014;2022-11-13T08:31:13;22.67;;;20.23;;
56161;SDS011;42045;52.986;6.014;2022-11-13T08:33:41;23.30;;;19.83;;
56161;SDS011;42045;52.986;6.014;2022-11-13T08:36:07;23.05;;;20.60;;
56161;SDS011;42045;52.986;6.014;2022-11-13T08:38:34;21.50;;;19.20;;
56161;SDS011;42045;52.986;6.014;2022-11-13T08:41:01;23.45;;;20.08;;
56161;SDS011;42045;52.986;6.014;2022-11-13T08:43:28;24.17;;;20.23;;
56161;SDS011;42045;52.986;6.014;2022-11-13T08:45:53;22.38;;;19.75;;
56161;SDS011;42045;52.986;6.014;2022-11-13T08:48:20;22.50;;;19.65;;
56161;SDS011;42045;52.986;6.014;2022-11-13T08:50:53;23.85;;;21.35;;
56161;SDS011;42045;52.986;6.014;2022-11-13T08:53:20;21.30;;;18.10;;
56161;SDS011;42045;52.986;6.014;2022-11-13T08:55:46;18.45;;;16.60;;
56161;SDS011;42045;52.986;6.014;2022-11-13T08:58:12;22.10;;;18.00;;
56161;SDS011;42045;52.986;6.014;2022-11-13T09:00:38;20.33;;;18.23;;
56161;SDS011;42045;52.986;6.014;2022-11-13T09:03:04;19.45;;;17.40;;
56161;SDS011;42045;52.986;6.014;2022-11-13T09:05:30;19.63;;;17.40;;
56161;SDS011;42045;52.986;6.014;2022-11-13T09:07:56;17.70;;;15.82;;
56161;SDS011;42045;52.986;6.014;2022-11-13T09:10:23;19.90;;;16.50;;
56161;SDS011;42045;52.986;6.014;2022-11-13T09:12:54;18.70;;;16.55;;
56161;SDS011;42045;52.986;6.014;2022-11-13T09:15:30;20.92;;;17.08;;
56161;SDS011;42045;52.986;6.014;2022-11-13T09:18:00;18.73;;;16.73;;
56161;SDS011;42045;52.986;6.014;2022-11-13T09:20:27;18.50;;;16.25;;
56161;SDS011;42045;52.986;6.014;2022-11-13T09:22:57;17.83;;;16.05;;
56161;SDS011;42045;52.986;6.014;2022-11-13T09:25:27;19.48;;;16.85;;
56161;SDS011;42045;52.986;6.014;2022-11-13T09:27:55;17.38;;;15.55;;
56161;SDS011;42045;52.986;6.014;2022-11-13T09:30:22;20.05;;;17.73;;
56161;SDS011;42045;52.986;6.014;2022-11-13T09:32:47;19.63;;;16.02;;
56161;SDS011;42045;52.986;6.014;2022-11-13T09:35:17;18.80;;;16.42;;
56161;SDS011;42045;52.986;6.014;2022-11-13T09:37:57;18.40;;;16.13;;
56161;SDS011;42045;52.986;6.014;2022-11-13T09:46:09;18.50;;;15.88;;
56161;SDS011;42045;52.986;6.014;2022-11-13T09:48:43;20.95;;;16.88;;
56161;SDS011;42045;52.986;6.014;2022-11-13T09:51:33;19.85;;;15.95;;
56161;SDS011;42045;52.986;6.014;2022-11-13T09:54:05;21.38;;;17.52;;
56161;SDS011;42045;52.986;6.014;2022-11-13T09:59:33;17.20;;;15.32;;
56161;SDS011;42045;52.986;6.014;2022-11-13T10:12:42;15.10;;;13.60;;
56161;SDS011;42045;52.986;6.014;2022-11-13T10:15:10;13.75;;;12.38;;
56161;SDS011;42045;52.986;6.014;2022-11-13T10:17:37;15.20;;;13.38;;
56161;SDS011;42045;52.986;6.014;2022-11-13T10:20:14;14.52;;;13.02;;
56161;SDS011;42045;52.986;6.014;2022-11-13T10:25:20;15.73;;;13.88;;
56161;SDS011;42045;52.986;6.014;2022-11-13T10:27:49;14.23;;;12.80;;
56161;SDS011;42045;52.986;6.014;2022-11-13T10:30:23;13.60;;;12.30;;
56161;SDS011;42045;52.986;6.014;2022-11-13T10:32:49;14.68;;;13.18;;
56161;SDS011;42045;52.986;6.014;2022-11-13T10:38:01;14.18;;;12.77;;
56161;SDS011;42045;52.986;6.014;2022-11-13T10:43:06;18.02;;;12.23;;
56161;SDS011;42045;52.986;6.014;2022-11-13T10:45:41;13.98;;;12.48;;
56161;SDS011;42045;52.986;6.014;2022-11-13T10:48:24;14.20;;;12.70;;
56161;SDS011;42045;52.986;6.014;2022-11-13T10:51:00;12.60;;;11.07;;
56161;SDS011;42045;52.986;6.014;2022-11-13T10:53:31;14.27;;;12.45;;
56161;SDS011;42045;52.986;6.014;2022-11-13T11:01:42;12.80;;;11.50;;
56161;SDS011;42045;52.986;6.014;2022-11-13T11:04:19;12.35;;;11.15;;
56161;SDS011;42045;52.986;6.014;2022-11-13T11:06:51;11.80;;;10.60;;
56161;SDS011;42045;52.986;6.014;2022-11-13T11:09:28;12.90;;;11.60;;
56161;SDS011;42045;52.986;6.014;2022-11-13T11:12:07;12.10;;;10.90;;
56161;SDS011;42045;52.986;6.014;2022-11-13T11:17:32;11.77;;;10.68;;
56161;SDS011;42045;52.986;6.014;2022-11-13T11:20:04;12.95;;;11.32;;
56161;SDS011;42045;52.986;6.014;2022-11-13T11:22:35;12.32;;;10.98;;
56161;SDS011;42045;52.986;6.014;2022-11-13T11:25:11;12.30;;;11.00;;
56161;SDS011;42045;52.986;6.014;2022-11-13T11:30:50;12.43;;;11.02;;
56161;SDS011;42045;52.986;6.014;2022-11-13T11:33:25;11.63;;;10.40;;
56161;SDS011;42045;52.986;6.014;2022-11-13T11:38:54;11.38;;;10.27;;
56161;SDS011;42045;52.986;6.014;2022-11-13T11:41:29;12.30;;;11.00;;
56161;SDS011;42045;52.986;6.014;2022-11-13T11:44:37;11.95;;;10.43;;
56161;SDS011;42045;52.986;6.014;2022-11-13T11:47:23;11.60;;;10.40;;
56161;SDS011;42045;52.986;6.014;2022-11-13T11:49:49;11.82;;;10.05;;
56161;SDS011;42045;52.986;6.014;2022-11-13T12:00:29;9.60;;;8.70;;
56161;SDS011;42045;52.986;6.014;2022-11-13T12:08:34;9.38;;;8.48;;
56161;SDS011;42045;52.986;6.014;2022-11-13T12:13:41;8.68;;;7.78;;
56161;SDS011;42045;52.986;6.014;2022-11-13T12:19:28;9.50;;;8.60;;
56161;SDS011;42045;52.986;6.014;2022-11-13T12:25:27;12.70;;;9.05;;
56161;SDS011;42045;52.986;6.014;2022-11-13T12:36:14;8.40;;;7.18;;
56161;SDS011;42045;52.986;6.014;2022-11-13T12:41:26;8.55;;;7.75;;
56161;SDS011;42045;52.986;6.014;2022-11-13T12:44:11;8.52;;;7.35;;
56161;SDS011;42045;52.986;6.014;2022-11-13T12:46:51;8.70;;;7.38;;
56161;SDS011;42045;52.986;6.014;2022-11-13T12:51:58;8.18;;;7.20;;
56161;SDS011;42045;52.986;6.014;2022-11-13T12:59:43;11.88;;;8.30;;
56161;SDS011;42045;52.986;6.014;2022-11-13T13:02:30;8.45;;;7.15;;
56161;SDS011;42045;52.986;6.014;2022-11-13T13:16:18;9.48;;;7.28;;
56161;SDS011;42045;52.986;6.014;2022-11-13T13:18:49;8.07;;;7.28;;
56161;SDS011;42045;52.986;6.014;2022-11-13T13:21:15;7.45;;;6.40;;
56161;SDS011;42045;52.986;6.014;2022-11-13T13:23:44;8.63;;;7.03;;
56161;SDS011;42045;52.986;6.014;2022-11-13T13:28:54;8.77;;;7.97;;
56161;SDS011;42045;52.986;6.014;2022-11-13T13:31:33;8.45;;;7.07;;
56161;SDS011;42045;52.986;6.014;2022-11-13T13:45:17;8.18;;;7.38;;
56161;SDS011;42045;52.986;6.014;2022-11-13T13:47:49;8.93;;;8.02;;
56161;SDS011;42045;52.986;6.014;2022-11-13T13:50:20;8.73;;;7.93;;
56161;SDS011;42045;52.986;6.014;2022-11-13T13:52:52;8.23;;;7.43;;
56161;SDS011;42045;52.986;6.014;2022-11-13T13:55:27;9.40;;;7.75;;
56161;SDS011;42045;52.986;6.014;2022-11-13T13:57:57;8.50;;;7.65;;
56161;SDS011;42045;52.986;6.014;2022-11-13T14:00:25;8.65;;;7.03;;
56161;SDS011;42045;52.986;6.014;2022-11-13T14:02:52;10.40;;;8.02;;
56161;SDS011;42045;52.986;6.014;2022-11-13T14:05:28;7.90;;;7.10;;
56161;SDS011;42045;52.986;6.014;2022-11-13T14:07:56;7.40;;;6.53;;
56161;SDS011;42045;52.986;6.014;2022-11-13T14:10:27;8.70;;;6.90;;
56161;SDS011;42045;52.986;6.014;2022-11-13T14:12:53;8.35;;;7.32;;
56161;SDS011;42045;52.986;6.014;2022-11-13T14:15:21;8.85;;;7.32;;
56161;SDS011;42045;52.986;6.014;2022-11-13T14:17:47;7.57;;;6.88;;
56161;SDS011;42045;52.986;6.014;2022-11-13T14:20:13;7.80;;;6.97;;
56161;SDS011;42045;52.986;6.014;2022-11-13T14:22:39;8.25;;;6.78;;
56161;SDS011;42045;52.986;6.014;2022-11-13T14:25:19;8.35;;;7.25;;
56161;SDS011;42045;52.986;6.014;2022-11-13T14:27:48;8.15;;;7.45;;
56161;SDS011;42045;52.986;6.014;2022-11-13T14:30:22;8.32;;;6.60;;
56161;SDS011;42045;52.986;6.014;2022-11-13T14:32:52;7.43;;;6.72;;
56161;SDS011;42045;52.986;6.014;2022-11-13T14:35:24;7.50;;;6.68;;
56161;SDS011;42045;52.986;6.014;2022-11-13T14:37:51;7.57;;;6.85;;
56161;SDS011;42045;52.986;6.014;2022-11-13T14:42:52;9.10;;;7.07;;
56161;SDS011;42045;52.986;6.014;2022-11-13T14:45:24;7.70;;;7.00;;
56161;SDS011;42045;52.986;6.014;2022-11-13T14:50:51;8.98;;;7.80;;
56161;SDS011;42045;52.986;6.014;2022-11-13T14:53:26;9.70;;;7.68;;
56161;SDS011;42045;52.986;6.014;2022-11-13T14:55:53;8.88;;;7.88;;
56161;SDS011;42045;52.986;6.014;2022-11-13T14:58:33;9.38;;;8.40;;
56161;SDS011;42045;52.986;6.014;2022-11-13T15:03:39;8.90;;;8.10;;
56161;SDS011;42045;52.986;6.014;2022-11-13T15:06:07;9.35;;;8.45;;
56161;SDS011;42045;52.986;6.014;2022-11-13T15:08:43;9.30;;;8.13;;
56161;SDS011;42045;52.986;6.014;2022-11-13T15:11:17;10.75;;;8.75;;
56161;SDS011;42045;52.986;6.014;2022-11-13T15:13:43;16.88;;;8.48;;
56161;SDS011;42045;52.986;6.014;2022-11-13T15:16:13;9.55;;;8.38;;
56161;SDS011;42045;52.986;6.014;2022-11-13T15:18:52;10.82;;;8.73;;
56161;SDS011;42045;52.986;6.014;2022-11-13T15:21:21;9.85;;;8.85;;
56161;SDS011;42045;52.986;6.014;2022-11-13T15:23:47;9.68;;;8.77;;
56161;SDS011;42045;52.986;6.014;2022-11-13T15:26:13;9.60;;;8.35;;
56161;SDS011;42045;52.986;6.014;2022-11-13T15:28:38;10.55;;;9.15;;
56161;SDS011;42045;52.986;6.014;2022-11-13T15:33:46;9.18;;;8.27;;
56161;SDS011;42045;52.986;6.014;2022-11-13T15:36:12;11.00;;;9.85;;
56161;SDS011;42045;52.986;6.014;2022-11-13T15:38:38;10.75;;;9.75;;
56161;SDS011;42045;52.986;6.014;2022-11-13T15:41:14;12.55;;;10.82;;
56161;SDS011;42045;52.986;6.014;2022-11-13T15:43:42;11.88;;;10.32;;
56161;SDS011;42045;52.986;6.014;2022-11-13T15:46:14;11.55;;;10.40;;
56161;SDS011;42045;52.986;6.014;2022-11-13T15:48:42;16.33;;;10.45;;
56161;SDS011;42045;52.986;6.014;2022-11-13T15:51:11;10.90;;;9.90;;
56161;SDS011;42045;52.986;6.014;2022-11-13T15:53:43;10.68;;;9.73;;
56161;SDS011;42045;52.986;6.014;2022-11-13T15:56:10;12.40;;;10.90;;
56161;SDS011;42045;52.986;6.014;2022-11-13T15:58:35;14.43;;;11.85;;
56161;SDS011;42045;52.986;6.014;2022-11-13T16:01:01;13.55;;;12.23;;
56161;SDS011;42045;52.986;6.014;2022-11-13T16:03:27;16.50;;;12.23;;
56161;SDS011;42045;52.986;6.014;2022-11-13T16:05:52;14.13;;;12.73;;
56161;SDS011;42045;52.986;6.014;2022-11-13T16:08:18;14.50;;;13.00;;
56161;SDS011;42045;52.986;6.014;2022-11-13T16:10:44;13.73;;;12.25;;
56161;SDS011;42045;52.986;6.014;2022-11-13T16:13:09;15.77;;;13.50;;
56161;SDS011;42045;52.986;6.014;2022-11-13T16:15:36;13.43;;;11.98;;
56161;SDS011;42045;52.986;6.014;2022-11-13T16:18:02;15.85;;;14.35;;
56161;SDS011;42045;52.986;6.014;2022-11-13T16:20:27;14.20;;;12.85;;
56161;SDS011;42045;52.986;6.014;2022-11-13T16:22:53;15.07;;;12.68;;
56161;SDS011;42045;52.986;6.014;2022-11-13T16:25:20;15.23;;;13.63;;
56161;SDS011;42045;52.986;6.014;2022-11-13T16:27:46;14.77;;;13.38;;
56161;SDS011;42045;52.986;6.014;2022-11-13T16:30:13;14.25;;;12.88;;
56161;SDS011;42045;52.986;6.014;2022-11-13T16:32:40;15.45;;;13.70;;
56161;SDS011;42045;52.986;6.014;2022-11-13T16:35:07;14.45;;;13.15;;
56161;SDS011;42045;52.986;6.014;2022-11-13T16:37:37;16.02;;;14.07;;
56161;SDS011;42045;52.986;6.014;2022-11-13T16:40:07;17.88;;;15.02;;